Time;durP1;ratioP1;P1;durP2;ratioP2;P2;SDS_P1;SDS_P2;PMS_P1;PMS_P2;Temp;Humidity;BMP_temperature;BMP_pressure;BME280_temperature;BME280_humidity;BME280_pressure;Samples;Min_cycle;Max_cycle;Signal;HPM_P1;HPM_P2
2022/07/12 00:01:18;;;;;;;1.50;0.52;;;18.30;91.40;;;;;;5011374;28;20085;-83
2022/07/12 00:03:44;;;;;;;1.65;0.70;;;18.20;91.60;;;;;;4996595;28;20141;-83
2022/07/12 00:06:10;;;;;;;1.92;0.52;;;18.20;92.00;;;;;;4996292;28;20503;-83
2022/07/12 00:08:35;;;;;;;1.10;0.50;;;18.20;91.80;;;;;;5011516;28;20118;-83
2022/07/12 00:11:01;;;;;;;1.88;0.60;;;18.20;91.90;;;;;;4995168;28;20022;-83
2022/07/12 00:13:27;;;;;;;2.10;0.70;;;18.20;92.00;;;;;;4994720;28;20034;-83
2022/07/12 00:15:53;;;;;;;1.38;0.60;;;18.20;92.10;;;;;;4996118;28;20026;-83
2022/07/12 00:18:19;;;;;;;5.15;1.08;;;18.10;92.20;;;;;;4995366;28;20022;-83
2022/07/12 00:20:44;;;;;;;1.75;0.80;;;18.10;92.30;;;;;;5011849;28;20026;-83
2022/07/12 00:23:10;;;;;;;3.13;0.80;;;18.10;92.40;;;;;;5010853;28;20043;-83
2022/07/12 00:25:35;;;;;;;2.63;0.80;;;18.10;92.50;;;;;;5015017;28;20034;-83
2022/07/12 00:28:02;;;;;;;1.80;0.60;;;18.10;92.60;;;;;;5003634;28;20025;-82
2022/07/12 00:30:27;;;;;;;1.83;0.60;;;18.00;92.80;;;;;;5004337;28;20101;-83
2022/07/12 00:32:53;;;;;;;1.15;0.60;;;18.00;93.00;;;;;;5015864;28;20081;-83
2022/07/12 00:35:18;;;;;;;2.30;0.75;;;18.00;93.10;;;;;;5002181;28;20026;-83
2022/07/12 00:37:44;;;;;;;2.60;0.80;;;17.90;93.30;;;;;;5002759;28;20029;-83
2022/07/12 00:40:11;;;;;;;4.57;0.90;;;17.90;93.30;;;;;;5001218;28;20026;-83
2022/07/12 00:42:38;;;;;;;1.70;0.70;;;17.90;93.40;;;;;;5020512;28;20025;-83
2022/07/12 00:45:05;;;;;;;2.20;1.00;;;17.90;93.40;;;;;;5017586;28;20026;-82
2022/07/12 00:47:40;;;;;;;3.17;1.15;;;17.90;93.50;;;;;;4999525;28;20025;-82
2022/07/12 00:50:12;;;;;;;1.25;0.47;;;17.80;93.50;;;;;;5014946;28;20033;-82
2022/07/12 00:52:38;;;;;;;2.05;0.70;;;17.80;93.60;;;;;;5015679;28;20032;-82
2022/07/12 00:55:08;;;;;;;1.92;0.88;;;17.80;93.60;;;;;;5015107;28;20369;-82
2022/07/12 00:57:37;;;;;;;3.85;0.90;;;17.70;93.70;;;;;;4997049;28;20026;-81
2022/07/12 01:00:06;;;;;;;3.47;0.93;;;17.70;93.70;;;;;;5015097;28;20101;-81
2022/07/12 01:02:34;;;;;;;2.70;0.93;;;17.70;93.80;;;;;;5013306;28;20029;-81
2022/07/12 01:05:00;;;;;;;2.40;1.05;;;17.70;93.80;;;;;;5013937;28;20076;-81
2022/07/12 01:07:26;;;;;;;2.70;0.90;;;17.70;93.90;;;;;;5013236;28;20465;-81
2022/07/12 01:09:54;;;;;;;2.00;0.70;;;17.60;93.90;;;;;;4997286;28;20026;-81
2022/07/12 01:12:21;;;;;;;2.25;0.70;;;17.60;94.00;;;;;;5013231;28;20018;-83
2022/07/12 01:14:48;;;;;;;2.65;0.88;;;17.50;94.10;;;;;;5013379;28;20707;-82
2022/07/12 01:17:14;;;;;;;1.52;0.85;;;17.50;94.30;;;;;;4998228;28;20022;-82
2022/07/12 01:19:40;;;;;;;1.42;0.65;;;17.50;94.50;;;;;;5008791;28;20118;-83
2022/07/12 01:22:09;;;;;;;3.03;0.70;;;17.50;94.60;;;;;;5025270;28;20053;-83
2022/07/12 01:24:38;;;;;;;1.00;0.50;;;17.40;94.70;;;;;;5014646;28;20018;-82
2022/07/12 01:27:04;;;;;;;3.55;0.80;;;17.40;94.80;;;;;;5013405;28;20036;-82
2022/07/12 01:29:31;;;;;;;2.72;0.70;;;17.40;94.90;;;;;;5014192;28;20018;-82
2022/07/12 01:32:24;;;;;;;1.45;0.63;;;17.40;94.90;;;;;;5029455;28;20022;-81
2022/07/12 01:34:48;;;;;;;2.25;0.60;;;17.30;94.90;;;;;;5011643;28;20052;-82
2022/07/12 01:37:15;;;;;;;1.50;0.70;;;17.20;94.90;;;;;;4993424;28;20070;-82
2022/07/12 01:39:41;;;;;;;1.23;0.68;;;17.20;95.00;;;;;;4976864;28;20569;-81
2022/07/12 01:42:06;;;;;;;1.35;0.57;;;17.20;95.00;;;;;;4994633;28;20451;-82
2022/07/12 01:44:32;;;;;;;1.75;0.73;;;17.10;95.10;;;;;;4994849;28;20029;-83
2022/07/12 01:46:58;;;;;;;1.15;0.55;;;17.10;95.20;;;;;;4993195;28;20018;-83
2022/07/12 01:49:24;;;;;;;0.95;0.60;;;17.10;95.50;;;;;;4993038;28;20026;-83
2022/07/12 01:51:50;;;;;;;1.10;0.60;;;17.10;95.30;;;;;;4976801;28;20475;-82
2022/07/12 01:54:15;;;;;;;1.88;0.80;;;17.00;95.40;;;;;;4960679;28;20042;-83
2022/07/12 01:56:41;;;;;;;2.28;0.77;;;17.00;95.40;;;;;;4994216;28;20366;-83
2022/07/12 01:59:07;;;;;;;2.10;0.75;;;17.00;95.50;;;;;;4976854;28;20053;-83
2022/07/12 02:01:35;;;;;;;2.05;0.82;;;17.00;95.50;;;;;;5009131;28;20028;-83
2022/07/12 02:04:05;;;;;;;3.60;1.02;;;16.90;95.60;;;;;;4992724;28;20490;-83
2022/07/12 02:06:32;;;;;;;1.77;0.70;;;16.90;95.70;;;;;;4992858;28;20023;-82
2022/07/12 02:08:58;;;;;;;2.75;0.90;;;16.90;95.80;;;;;;5009386;28;20030;-82
2022/07/12 02:11:24;;;;;;;2.92;1.10;;;16.90;95.90;;;;;;4976675;28;20467;-81
2022/07/12 02:13:50;;;;;;;1.55;0.77;;;16.90;95.90;;;;;;4992175;28;20026;-81
2022/07/12 02:16:16;;;;;;;3.58;1.00;;;16.80;96.00;;;;;;4976438;28;20068;-82
2022/07/12 02:18:41;;;;;;;3.13;1.02;;;16.80;96.10;;;;;;4992719;28;20030;-81
2022/07/12 02:21:07;;;;;;;2.90;1.20;;;16.80;96.10;;;;;;4960294;28;20030;-81
2022/07/12 02:23:33;;;;;;;3.95;1.30;;;16.80;96.20;;;;;;4993530;28;20043;-81
2022/07/12 02:25:58;;;;;;;2.60;1.20;;;16.80;96.30;;;;;;4993078;28;20486;-82
2022/07/12 02:28:24;;;;;;;3.25;1.00;;;16.80;96.50;;;;;;4992719;28;20034;-82
2022/07/12 02:30:50;;;;;;;2.83;1.13;;;16.80;96.50;;;;;;4992652;28;20481;-82
2022/07/12 02:33:15;;;;;;;2.65;1.23;;;16.80;96.60;;;;;;4992163;28;20450;-81
2022/07/12 02:35:44;;;;;;;2.75;1.10;;;16.80;96.70;;;;;;4976381;28;20031;-81
2022/07/12 02:38:10;;;;;;;2.58;1.10;;;16.80;96.80;;;;;;4992689;28;20022;-80
2022/07/12 02:40:53;;;;;;;2.03;1.10;;;16.70;96.80;;;;;;4960277;28;20023;-81
2022/07/12 02:43:29;;;;;;;2.25;1.33;;;16.70;96.90;;;;;;4978488;28;20057;-81
2022/07/12 02:46:09;;;;;;;2.90;1.40;;;16.70;97.00;;;;;;4992394;28;20030;-81
2022/07/12 02:48:35;;;;;;;3.30;1.60;;;16.70;97.00;;;;;;4993085;28;20033;-81
2022/07/12 02:51:01;;;;;;;2.15;1.10;;;16.70;97.10;;;;;;4996531;28;20027;-81
2022/07/12 02:53:27;;;;;;;2.97;1.40;;;16.70;97.10;;;;;;4997098;28;20118;-81
2022/07/12 02:55:53;;;;;;;2.97;1.30;;;16.60;97.10;;;;;;4997358;28;20038;-81
2022/07/12 02:58:19;;;;;;;3.70;1.80;;;16.60;97.20;;;;;;4996273;28;20026;-81
2022/07/12 03:00:45;;;;;;;3.13;1.58;;;16.60;97.30;;;;;;5012374;28;20049;-81
2022/07/12 03:03:12;;;;;;;3.05;1.73;;;16.60;97.40;;;;;;4997673;28;20057;-81
2022/07/12 03:05:38;;;;;;;3.35;2.10;;;16.60;97.40;;;;;;4996443;28;20027;-81
2022/07/12 03:08:04;;;;;;;3.33;1.77;;;16.60;97.50;;;;;;5012142;28;20032;-81
2022/07/12 03:10:30;;;;;;;3.33;1.58;;;16.60;97.60;;;;;;5012323;28;20022;-80
2022/07/12 03:12:56;;;;;;;4.82;2.33;;;16.60;97.60;;;;;;4995909;28;20398;-81
2022/07/12 03:15:21;;;;;;;3.50;2.03;;;16.50;97.70;;;;;;4979673;28;20026;-81
2022/07/12 03:17:47;;;;;;;3.00;1.83;;;16.50;97.70;;;;;;4996499;28;20424;-81
2022/07/12 03:20:14;;;;;;;3.80;2.05;;;16.50;97.80;;;;;;4996609;28;20042;-81
2022/07/12 03:22:41;;;;;;;2.60;1.75;;;16.50;98.10;;;;;;4996430;28;20042;-81
2022/07/12 03:25:08;;;;;;;3.80;1.90;;;16.50;97.90;;;;;;5012585;28;20022;-81
2022/07/12 03:27:34;;;;;;;4.82;2.15;;;16.50;98.00;;;;;;4997113;28;20100;-80
2022/07/12 03:30:00;;;;;;;3.67;2.42;;;16.50;98.00;;;;;;4995535;28;20022;-80
2022/07/12 03:32:26;;;;;;;3.83;2.10;;;16.40;98.10;;;;;;4996036;28;20022;-80
2022/07/12 03:34:51;;;;;;;4.35;2.70;;;16.40;98.20;;;;;;4996792;28;20046;-80
2022/07/12 03:37:17;;;;;;;4.35;2.83;;;16.40;98.30;;;;;;4979434;28;20030;-80
2022/07/12 03:39:42;;;;;;;8.27;3.22;;;16.50;98.30;;;;;;4996519;28;20027;-80
2022/07/12 03:42:08;;;;;;;4.10;2.50;;;16.40;98.40;;;;;;4995263;28;20022;-81
2022/07/12 03:44:34;;;;;;;4.05;3.00;;;16.40;98.40;;;;;;4978920;28;20489;-82
2022/07/12 03:47:00;;;;;;;4.72;3.03;;;16.40;98.50;;;;;;4995568;28;20515;-81
2022/07/12 03:49:26;;;;;;;4.53;3.45;;;16.40;98.50;;;;;;5011852;28;20025;-81
2022/07/12 03:51:52;;;;;;;8.25;3.33;;;16.40;98.60;;;;;;4996631;28;20142;-81
2022/07/12 03:54:18;;;;;;;5.28;3.13;;;16.40;98.70;;;;;;4995099;28;20518;-81
2022/07/12 03:59:27;;;;;;;4.97;3.25;;;16.40;98.80;;;;;;4994890;28;20041;-82
2022/07/12 04:01:53;;;;;;;5.72;3.55;;;16.40;99.10;;;;;;4979011;28;20019;-80
2022/07/12 04:04:18;;;;;;;3.95;3.05;;;16.40;98.80;;;;;;4995180;28;20034;-81
2022/07/12 04:06:44;;;;;;;5.32;3.25;;;16.40;98.90;;;;;;4994836;28;20031;-82
2022/07/12 04:09:10;;;;;;;5.00;2.75;;;16.40;98.90;;;;;;4994996;28;20118;-81
2022/07/12 04:11:36;;;;;;;5.78;3.95;;;16.50;99.00;;;;;;4994832;28;20054;-81
2022/07/12 04:14:05;;;;;;;5.65;3.40;;;16.50;99.00;;;;;;4994668;28;20077;-82
2022/07/12 04:16:31;;;;;;;7.60;3.72;;;16.40;99.10;;;;;;5010786;28;20022;-81
2022/07/12 04:18:57;;;;;;;6.97;4.03;;;16.50;99.20;;;;;;4978391;28;20022;-81
2022/07/12 04:21:23;;;;;;;5.20;3.63;;;16.40;99.20;;;;;;4996080;28;20022;-81
2022/07/12 04:23:48;;;;;;;5.53;3.88;;;16.50;99.20;;;;;;4995863;28;20030;-81
2022/07/12 04:26:14;;;;;;;4.93;3.53;;;16.50;99.30;;;;;;4994815;28;20076;-81
2022/07/12 04:28:40;;;;;;;7.60;3.80;;;16.50;99.30;;;;;;5011117;28;20027;-81
2022/07/12 04:31:09;;;;;;;6.22;4.13;;;16.50;99.30;;;;;;4994692;28;20030;-80
2022/07/12 04:33:35;;;;;;;5.32;3.90;;;16.60;99.40;;;;;;5010405;28;20058;-80
2022/07/12 04:36:01;;;;;;;6.53;4.57;;;16.60;99.40;;;;;;4994587;28;20509;-80
2022/07/12 04:38:26;;;;;;;6.05;4.75;;;16.60;99.40;;;;;;5003335;28;20065;-80
2022/07/12 04:40:52;;;;;;;6.95;4.22;;;16.60;99.40;;;;;;4994365;28;20030;-80
2022/07/12 04:43:18;;;;;;;6.35;4.22;;;16.60;99.40;;;;;;4993865;28;20018;-79
2022/07/12 04:45:44;;;;;;;5.55;4.47;;;16.60;99.40;;;;;;4978395;28;20088;-82
2022/07/12 04:48:12;;;;;;;8.00;4.55;;;16.60;99.40;;;;;;4962163;28;20022;-81
2022/07/12 04:50:38;;;;;;;7.18;4.57;;;16.60;99.50;;;;;;4994122;28;20076;-81
2022/07/12 04:53:04;;;;;;;7.32;5.00;;;16.70;99.60;;;;;;4994021;28;20026;-81
2022/07/12 04:55:29;;;;;;;7.57;5.03;;;16.70;99.60;;;;;;4994036;28;20015;-81
2022/07/12 04:57:55;;;;;;;7.00;5.40;;;16.70;99.70;;;;;;4962078;28;20029;-81
2022/07/12 05:00:21;;;;;;;6.78;5.20;;;16.80;99.70;;;;;;4978033;28;20113;-81
2022/07/12 05:02:47;;;;;;;7.10;5.43;;;16.80;99.80;;;;;;4997886;28;20025;-81
2022/07/12 05:05:14;;;;;;;6.80;5.35;;;16.80;99.80;;;;;;4988999;28;20061;-80
2022/07/12 05:07:40;;;;;;;8.40;5.55;;;16.90;99.90;;;;;;4995327;28;20120;-82
2022/07/12 05:10:06;;;;;;;6.57;5.50;;;16.90;99.90;;;;;;5028612;28;20030;-83
2022/07/12 05:12:31;;;;;;;9.40;5.95;;;17.00;99.90;;;;;;4996526;28;20037;-81
2022/07/12 05:14:57;;;;;;;6.70;5.45;;;17.00;99.90;;;;;;5010717;28;20042;-81
2022/07/12 05:17:23;;;;;;;9.82;6.00;;;17.00;99.90;;;;;;4996212;28;20036;-83
2022/07/12 05:19:48;;;;;;;9.63;7.10;;;17.10;99.90;;;;;;5014542;28;20026;-81
2022/07/12 05:22:14;;;;;;;9.48;6.15;;;17.10;99.90;;;;;;5015695;28;20363;-81
2022/07/12 05:24:39;;;;;;;11.18;7.40;;;17.10;99.90;;;;;;5015388;28;20032;-79
2022/07/12 05:27:05;;;;;;;8.00;7.20;;;17.20;99.90;;;;;;5014459;28;20022;-81
2022/07/12 05:29:31;;;;;;;11.52;8.07;;;17.20;99.90;;;;;;5009362;28;20030;-81
2022/07/12 05:31:57;;;;;;;11.57;7.72;;;17.30;99.90;;;;;;5005014;28;20026;-81
2022/07/12 05:34:23;;;;;;;9.38;8.02;;;17.30;99.90;;;;;;5005411;28;20044;-82
2022/07/12 05:36:49;;;;;;;9.48;8.10;;;17.40;99.90;;;;;;4992603;28;20022;-81
2022/07/12 05:39:14;;;;;;;9.75;8.15;;;17.40;99.90;;;;;;4988106;28;20490;-80
2022/07/12 05:41:40;;;;;;;11.40;7.82;;;17.40;99.90;;;;;;5003874;28;20034;-80
2022/07/12 05:44:06;;;;;;;9.88;7.80;;;17.40;99.90;;;;;;4968136;28;20045;-80
2022/07/12 05:46:32;;;;;;;13.20;8.18;;;17.50;99.90;;;;;;4998254;28;20029;-80
2022/07/12 05:48:57;;;;;;;11.57;7.60;;;17.60;99.90;;;;;;5013669;28;20034;-80
2022/07/12 05:54:07;;;;;;;12.02;8.20;;;17.60;99.90;;;;;;5014481;28;20138;-81
2022/07/12 05:56:33;;;;;;;10.32;8.18;;;17.70;99.90;;;;;;5030289;28;20049;-81
2022/07/12 05:58:59;;;;;;;11.43;8.05;;;17.80;99.90;;;;;;5014270;28;20109;-81
2022/07/12 06:01:25;;;;;;;9.90;8.02;;;17.80;99.90;;;;;;5029181;28;20026;-81
2022/07/12 06:03:50;;;;;;;10.48;8.77;;;17.90;99.90;;;;;;5012405;28;20025;-81
2022/07/12 06:06:16;;;;;;;9.77;7.05;;;18.00;99.90;;;;;;5029083;28;20354;-81
2022/07/12 06:08:42;;;;;;;10.77;7.95;;;18.10;99.90;;;;;;5012715;28;20037;-81
2022/07/12 06:11:07;;;;;;;13.05;8.00;;;18.10;99.90;;;;;;4996283;28;20037;-81
2022/07/12 06:13:33;;;;;;;9.43;7.82;;;18.10;99.90;;;;;;5012305;28;20030;-81
2022/07/12 06:15:59;;;;;;;7.20;6.30;;;18.20;99.90;;;;;;4979692;28;20021;-81
2022/07/12 06:18:25;;;;;;;7.78;6.80;;;18.30;99.90;;;;;;5012233;28;20462;-81
2022/07/12 06:20:51;;;;;;;9.05;7.10;;;18.40;99.90;;;;;;5008362;28;20017;-81
2022/07/12 06:23:17;;;;;;;8.02;6.50;;;18.50;99.90;;;;;;4985086;28;20042;-81
2022/07/12 06:25:42;;;;;;;10.30;6.65;;;18.50;99.80;;;;;;5007999;28;20108;-82
2022/07/12 06:28:08;;;;;;;7.13;5.60;;;18.60;99.70;;;;;;5028802;28;20120;-81
2022/07/12 06:30:34;;;;;;;7.07;5.65;;;18.70;99.60;;;;;;5012122;28;20129;-80
2022/07/12 06:32:59;;;;;;;6.80;4.88;;;18.70;99.80;;;;;;4995599;28;20465;-81
2022/07/12 06:35:25;;;;;;;5.28;4.43;;;18.80;99.40;;;;;;5012011;28;20026;-80
2022/07/12 06:37:51;;;;;;;7.72;5.45;;;18.80;99.30;;;;;;5013308;28;20017;-78
2022/07/12 06:40:17;;;;;;;5.90;4.82;;;18.90;99.20;;;;;;5013848;28;20481;-80
2022/07/12 06:42:43;;;;;;;5.93;5.00;;;18.90;99.00;;;;;;4978668;28;20021;-79
2022/07/12 06:45:09;;;;;;;5.78;4.78;;;19.00;98.80;;;;;;5009737;28;20022;-78
2022/07/12 06:47:35;;;;;;;7.43;5.30;;;19.00;98.70;;;;;;4995741;28;20429;-79
2022/07/12 06:50:02;;;;;;;5.55;4.95;;;19.00;98.60;;;;;;5011647;28;20470;-79
2022/07/12 06:52:27;;;;;;;7.20;4.95;;;19.10;98.60;;;;;;5013126;28;20034;-80
2022/07/12 06:54:53;;;;;;;7.82;6.13;;;19.00;98.60;;;;;;4994886;28;20044;-80
2022/07/12 06:57:19;;;;;;;5.85;5.07;;;19.10;98.60;;;;;;5011538;28;20131;-79
2022/07/12 06:59:44;;;;;;;7.70;5.20;;;19.10;98.60;;;;;;4995475;28;20423;-79
2022/07/12 07:02:10;;;;;;;7.47;4.68;;;19.20;98.60;;;;;;4991513;28;20030;-79
2022/07/12 07:04:35;;;;;;;6.65;4.85;;;19.30;98.60;;;;;;4976070;28;20018;-79
2022/07/12 07:07:01;;;;;;;6.13;4.85;;;19.30;98.60;;;;;;4973724;28;20374;-80
2022/07/12 07:09:27;;;;;;;8.88;5.82;;;19.40;98.50;;;;;;4984553;28;20014;-79
2022/07/12 07:11:53;;;;;;;5.07;3.95;;;19.50;98.50;;;;;;5012886;28;20049;-78
2022/07/12 07:14:19;;;;;;;5.50;4.15;;;19.60;98.40;;;;;;4975983;28;20457;-79
2022/07/12 07:16:45;;;;;;;8.13;3.95;;;19.70;98.40;;;;;;4991713;28;20031;-82
2022/07/12 07:19:10;;;;;;;5.70;3.55;;;19.80;98.30;;;;;;5004481;28;20370;-82
2022/07/12 07:21:36;;;;;;;5.68;3.78;;;19.90;98.20;;;;;;5010357;28;20137;-82
2022/07/12 07:24:06;;;;;;;5.90;3.60;;;20.10;98.10;;;;;;5011710;28;20060;-83
2022/07/12 07:26:32;;;;;;;6.60;3.55;;;20.20;97.90;;;;;;5013129;28;20120;-82
2022/07/12 07:31:45;;;;;;;9.35;3.13;;;20.50;97.60;;;;;;5011789;28;20096;-80
2022/07/12 07:34:11;;;;;;;5.63;2.60;;;20.70;97.40;;;;;;5011464;28;20041;-82
2022/07/12 07:36:37;;;;;;;8.18;3.05;;;20.80;97.10;;;;;;4998712;28;20025;-82
2022/07/12 07:39:03;;;;;;;5.18;3.13;;;20.90;96.90;;;;;;5016482;28;20451;-82
2022/07/12 07:41:31;;;;;;;5.30;3.25;;;21.10;96.60;;;;;;5016487;28;20057;-82
2022/07/12 07:43:57;;;;;;;6.80;2.47;;;21.20;96.10;;;;;;4982279;28;20418;-81
2022/07/12 07:46:31;;;;;;;4.55;2.75;;;21.30;95.80;;;;;;4998335;28;20033;-82
2022/07/12 07:48:57;;;;;;;6.20;3.10;;;21.40;95.40;;;;;;4999757;28;20060;-84
2022/07/12 07:51:23;;;;;;;4.57;2.78;;;21.40;95.10;;;;;;5014874;28;20418;-82
2022/07/12 07:53:48;;;;;;;4.55;3.00;;;21.50;94.80;;;;;;5014150;28;20034;-83
2022/07/12 07:56:14;;;;;;;4.45;2.63;;;21.50;94.60;;;;;;5004097;28;20060;-83
2022/07/12 07:58:40;;;;;;;5.13;2.75;;;21.60;94.50;;;;;;4978655;28;20034;-83
2022/07/12 08:01:05;;;;;;;4.72;2.92;;;21.60;94.40;;;;;;5002470;28;20030;-81
2022/07/12 08:03:31;;;;;;;5.50;3.08;;;21.70;94.20;;;;;;5000979;28;20088;-83
2022/07/12 08:05:58;;;;;;;6.22;3.08;;;21.70;94.00;;;;;;4999207;28;20017;-81
2022/07/12 08:08:24;;;;;;;4.18;2.67;;;21.90;93.70;;;;;;4994884;28;20029;-84
2022/07/12 08:10:53;;;;;;;4.95;2.75;;;22.00;93.50;;;;;;4994711;28;20022;-81
2022/07/12 08:13:18;;;;;;;5.65;2.90;;;22.10;93.10;;;;;;4995998;28;20034;-82
2022/07/12 08:15:44;;;;;;;6.53;2.63;;;22.10;92.80;;;;;;4996194;28;20481;-82
2022/07/12 08:18:10;;;;;;;6.28;3.00;;;22.20;92.60;;;;;;4996502;28;20394;-82
2022/07/12 08:20:36;;;;;;;4.22;2.70;;;22.30;92.40;;;;;;5014279;28;20034;-83
2022/07/12 08:23:02;;;;;;;10.15;2.97;;;22.40;92.00;;;;;;4997883;28;20049;-83
2022/07/12 08:25:28;;;;;;;7.78;2.55;;;22.40;91.80;;;;;;5015057;28;20100;-82
2022/07/12 08:27:54;;;;;;;3.30;1.80;;;22.50;91.40;;;;;;5014123;28;20022;-78
2022/07/12 08:30:20;;;;;;;4.00;2.00;;;22.60;91.20;;;;;;5014318;28;20038;-77
2022/07/12 08:32:46;;;;;;;3.63;2.00;;;22.70;91.10;;;;;;4981399;28;20108;-77
2022/07/12 08:35:14;;;;;;;3.35;2.10;;;22.80;90.80;;;;;;5013329;28;20014;-78
2022/07/12 08:37:40;;;;;;;5.30;2.60;;;22.80;90.50;;;;;;5013903;28;20057;-78
2022/07/12 08:40:07;;;;;;;2.85;1.65;;;22.90;90.30;;;;;;5013395;28;20026;-79
2022/07/12 08:42:33;;;;;;;4.88;2.60;;;23.00;90.10;;;;;;4997439;28;20536;-78
2022/07/12 08:44:59;;;;;;;3.55;1.50;;;23.00;89.50;;;;;;4981426;28;20022;-82
2022/07/12 08:47:25;;;;;;;2.40;1.67;;;23.10;88.80;;;;;;4977825;28;20126;-79
2022/07/12 08:50:10;;;;;;;2.47;1.38;;;23.20;88.00;;;;;;4994176;28;20113;-78
2022/07/12 08:52:40;;;;;;;3.45;1.38;;;23.20;86.60;;;;;;4994231;28;20109;-81
2022/07/12 08:55:34;;;;;;;3.20;1.38;;;23.20;86.20;;;;;;4995272;28;20149;-79
2022/07/12 08:58:02;;;;;;;3.33;1.38;;;23.30;85.80;;;;;;4994329;28;20479;-80
2022/07/12 09:00:30;;;;;;;2.05;1.20;;;23.20;85.20;;;;;;4995265;28;20030;-78
2022/07/12 09:03:00;;;;;;;2.35;1.25;;;23.20;84.60;;;;;;4977771;28;20105;-78
2022/07/12 09:05:30;;;;;;;5.07;1.30;;;23.30;84.00;;;;;;5001209;28;20038;-78
2022/07/12 09:08:09;;;;;;;2.83;1.23;;;23.30;83.70;;;;;;4988566;28;20462;-78
2022/07/12 09:10:54;;;;;;;2.92;1.30;;;23.30;83.40;;;;;;5004267;28;20108;-79
2022/07/12 09:13:21;;;;;;;2.97;1.50;;;23.30;83.30;;;;;;5020197;28;20021;-78
2022/07/12 09:15:47;;;;;;;3.38;1.15;;;23.40;83.30;;;;;;4985009;28;20371;-78
2022/07/12 09:18:15;;;;;;;2.53;1.00;;;23.50;83.20;;;;;;5018266;28;20022;-78
2022/07/12 09:20:43;;;;;;;2.25;1.00;;;23.50;82.50;;;;;;4994566;28;20018;-78
2022/07/12 09:23:11;;;;;;;1.60;0.70;;;23.60;81.60;;;;;;5029584;28;20050;-79
2022/07/12 09:25:48;;;;;;;2.58;0.80;;;23.60;81.20;;;;;;5014282;28;20041;-77
2022/07/12 09:28:15;;;;;;;2.40;1.10;;;23.70;80.80;;;;;;5013264;28;20030;-78
2022/07/12 09:30:49;;;;;;;1.52;0.70;;;23.70;80.10;;;;;;5029299;28;20481;-78
2022/07/12 09:36:06;;;;;;;2.95;1.35;;;23.80;79.50;;;;;;4992640;28;20049;-78
2022/07/12 09:38:50;;;;;;;1.77;1.00;;;23.90;79.00;;;;;;4993367;28;20412;-78
2022/07/12 09:41:17;;;;;;;;;;;23.90;78.50;;;;;;5000549;28;20076;-78
2022/07/12 09:43:45;;;;;;;1.90;1.10;;;23.90;78.10;;;;;;4997022;28;19929;-78
2022/07/12 09:46:13;;;;;;;2.05;0.90;;;24.00;78.30;;;;;;4985169;28;20030;-79
2022/07/12 09:48:40;;;;;;;1.65;1.00;;;24.00;77.80;;;;;;5005083;28;20025;-78
2022/07/12 09:51:09;;;;;;;3.35;1.30;;;24.00;77.60;;;;;;4988757;28;20117;-77
2022/07/12 09:53:42;;;;;;;2.95;0.90;;;24.10;77.10;;;;;;4985408;28;20034;-78
2022/07/12 09:56:11;;;;;;;3.08;1.23;;;24.20;76.90;;;;;;5003093;28;20461;-77
2022/07/12 09:58:51;;;;;;;1.23;0.70;;;24.20;76.70;;;;;;5004403;28;20610;-79
2022/07/12 10:01:17;;;;;;;2.05;0.73;;;24.30;76.30;;;;;;4992749;28;20540;-82
2022/07/12 10:03:44;;;;;;;1.30;0.60;;;24.30;75.50;;;;;;4993144;28;20024;-80
2022/07/12 10:06:12;;;;;;;1.65;0.63;;;24.30;75.30;;;;;;4976996;28;20034;-81
2022/07/12 10:08:38;;;;;;;2.03;0.70;;;24.30;75.40;;;;;;4993164;28;20026;-80
2022/07/12 10:11:05;;;;;;;3.90;0.75;;;24.30;75.50;;;;;;4993146;28;20485;-82
2022/07/12 10:13:32;;;;;;;1.40;0.70;;;24.30;75.40;;;;;;4992539;28;20049;-80
2022/07/12 10:16:02;;;;;;;2.20;1.00;;;24.40;75.50;;;;;;4994410;28;20105;-81
2022/07/12 10:18:29;;;;;;;2.42;1.00;;;24.40;75.60;;;;;;4993401;28;20030;-81
2022/07/12 10:20:55;;;;;;;2.00;0.90;;;24.40;75.60;;;;;;4962683;28;20069;-81
2022/07/12 10:23:23;;;;;;;2.20;0.70;;;24.50;75.40;;;;;;4995078;28;20449;-80
2022/07/12 10:25:49;;;;;;;6.70;0.98;;;24.50;74.90;;;;;;5012794;28;20120;-81
2022/07/12 10:28:15;;;;;;;1.33;0.57;;;24.50;75.40;;;;;;4995715;28;20438;-80
2022/07/12 10:30:51;;;;;;;2.00;0.70;;;24.60;74.40;;;;;;4979341;28;20060;-80
2022/07/12 10:33:24;;;;;;;4.07;1.02;;;24.60;73.90;;;;;;4997761;28;20053;-80
2022/07/12 10:36:06;;;;;;;2.38;0.80;;;24.70;73.40;;;;;;5029084;28;20116;-80
2022/07/12 10:38:34;;;;;;;3.28;1.05;;;24.80;72.80;;;;;;5030385;28;20026;-81
2022/07/12 10:41:19;;;;;;;2.55;0.90;;;25.00;72.80;;;;;;5014950;28;20022;-80
2022/07/12 10:44:04;;;;;;;1.98;0.70;;;25.10;72.10;;;;;;5014945;28;20028;-81
2022/07/12 10:46:30;;;;;;;1.70;0.90;;;25.30;72.30;;;;;;5000579;28;20524;-81
2022/07/12 10:49:28;;;;;;;1.83;1.00;;;25.50;71.90;;;;;;5016991;28;20022;-81
2022/07/12 10:52:12;;;;;;;1.27;0.73;;;25.70;70.70;;;;;;5016632;28;20057;-81
2022/07/12 10:54:39;;;;;;;4.60;0.90;;;26.00;69.90;;;;;;5016030;28;20085;-82
2022/07/12 10:57:06;;;;;;;2.55;1.42;;;26.20;70.00;;;;;;5016294;28;20033;-81
2022/07/12 10:59:36;;;;;;;2.22;1.23;;;26.40;69.40;;;;;;5029801;28;20378;-81
2022/07/12 11:02:03;;;;;;;1.88;1.13;;;26.60;68.80;;;;;;4996569;28;20030;-81
2022/07/12 11:04:29;;;;;;;2.53;1.20;;;26.80;68.30;;;;;;4996089;28;20025;-82
2022/07/12 11:06:57;;;;;;;1.73;0.82;;;27.10;67.70;;;;;;5000260;28;20109;-81
2022/07/12 11:09:24;;;;;;;2.53;0.80;;;27.30;67.10;;;;;;5005705;28;20478;-82
2022/07/12 11:11:52;;;;;;;1.85;0.80;;;27.50;66.50;;;;;;5006100;28;20029;-82
2022/07/12 11:14:24;;;;;;;1.70;0.93;;;27.70;65.60;;;;;;5014108;28;20042;-81
2022/07/12 11:16:54;;;;;;;1.77;0.75;;;27.90;64.60;;;;;;5008674;28;20022;-82
2022/07/12 11:19:30;;;;;;;2.20;1.38;;;28.10;64.20;;;;;;4996933;28;20018;-82
2022/07/12 11:21:57;;;;;;;3.33;1.25;;;28.20;63.70;;;;;;4981289;28;20072;-82
2022/07/12 11:24:25;;;;;;;2.00;1.08;;;28.40;63.00;;;;;;4979731;28;20455;-81
2022/07/12 11:26:52;;;;;;;2.55;1.30;;;28.60;62.40;;;;;;4995710;28;20352;-83
2022/07/12 11:29:19;;;;;;;2.60;1.55;;;28.70;62.00;;;;;;5000589;28;20489;-89
2022/07/12 11:31:45;;;;;;;2.33;1.30;;;28.90;61.30;;;;;;5012382;28;20030;-88
2022/07/12 11:34:25;;;;;;;1.83;1.33;;;29.00;60.50;;;;;;5015794;28;20034;-89
2022/07/12 11:36:58;;;;;;;1.98;0.90;;;29.20;59.50;;;;;;5015485;28;20450;-89
2022/07/12 11:39:38;;;;;;;2.17;1.10;;;29.40;59.70;;;;;;4999952;28;20462;-88
2022/07/12 11:42:05;;;;;;;1.55;0.90;;;29.50;59.20;;;;;;5015786;28;20030;-83
2022/07/12 11:44:43;;;;;;;1.50;0.90;;;29.70;59.20;;;;;;5015694;28;20026;-89
2022/07/12 11:47:10;;;;;;;1.40;0.88;;;29.90;58.30;;;;;;4999600;28;20377;-90
2022/07/12 11:49:36;;;;;;;2.03;1.00;;;30.00;58.20;;;;;;5016415;28;20370;-89
2022/07/12 11:52:05;;;;;;;2.45;1.35;;;30.20;57.60;;;;;;5016568;28;20052;-92
2022/07/12 11:54:31;;;;;;;2.88;0.80;;;30.40;56.70;;;;;;5015791;28;20030;-89
2022/07/12 11:57:18;;;;;;;2.65;0.80;;;30.50;56.50;;;;;;4999443;28;20058;-90
2022/07/12 11:59:44;;;;;;;3.50;1.08;;;30.70;55.40;;;;;;5015531;28;20018;-88
2022/07/12 12:02:15;;;;;;;2.28;0.80;;;30.80;55.40;;;;;;4998738;28;20026;-88
2022/07/12 12:04:51;;;;;;;1.60;0.73;;;30.90;54.50;;;;;;5015001;28;20048;-87
2022/07/12 12:07:21;;;;;;;1.60;0.95;;;31.00;54.30;;;;;;5014748;28;20030;-87
2022/07/12 12:10:19;;;;;;;1.25;0.80;;;31.20;54.20;;;;;;5012794;28;20066;-87
2022/07/12 12:12:51;;;;;;;2.78;0.85;;;31.30;53.70;;;;;;4973242;28;20035;-88
2022/07/12 12:15:18;;;;;;;3.45;1.45;;;31.50;54.10;;;;;;4996094;28;20088;-90
2022/07/12 12:18:05;;;;;;;4.80;1.80;;;31.70;53.70;;;;;;5008917;28;20032;-92
2022/07/12 12:20:32;;;;;;;2.33;1.52;;;31.90;52.50;;;;;;4995553;28;20022;-87
2022/07/12 12:22:59;;;;;;;2.55;1.00;;;31.90;52.70;;;;;;4995223;28;20458;-88
2022/07/12 12:25:26;;;;;;;1.83;0.90;;;32.00;52.40;;;;;;4979273;28;20018;-89
2022/07/12 12:28:00;;;;;;;1.77;0.82;;;32.10;52.30;;;;;;4995240;28;20525;-88
2022/07/12 12:30:27;;;;;;;1.23;0.73;;;32.30;51.70;;;;;;5008790;28;20022;-87
2022/07/12 12:32:57;;;;;;;1.00;0.60;;;32.40;51.30;;;;;;5005411;28;20026;-88
2022/07/12 12:35:37;;;;;;;1.20;0.70;;;32.50;51.00;;;;;;5014489;28;20520;-89
2022/07/12 12:38:10;;;;;;;1.13;0.57;;;32.60;50.30;;;;;;4991726;28;20025;-90
2022/07/12 12:40:37;;;;;;;2.38;1.02;;;32.70;50.20;;;;;;5003442;28;20485;-87
2022/07/12 12:43:12;;;;;;;1.52;0.80;;;32.80;49.90;;;;;;5004906;28;20077;-89
2022/07/12 12:45:58;;;;;;;2.72;0.70;;;32.90;49.40;;;;;;5003751;28;20370;-90
2022/07/12 12:48:26;;;;;;;1.60;0.95;;;33.00;49.00;;;;;;5004721;28;20026;-90
2022/07/12 12:51:11;;;;;;;1.30;0.80;;;33.20;49.50;;;;;;5002783;28;20017;-89
2022/07/12 12:53:39;;;;;;;1.70;0.80;;;33.40;48.90;;;;;;5004924;28;20022;-90
2022/07/12 12:56:12;;;;;;;1.20;0.63;;;33.60;49.20;;;;;;5005026;28;20023;-89
2022/07/12 12:58:39;;;;;;;1.60;0.80;;;33.70;48.80;;;;;;5005602;28;20034;-88
2022/07/12 13:01:06;;;;;;;4.40;1.60;;;33.90;48.30;;;;;;4994802;28;20022;-90